sensor_id;sensor_type;location;lat;lon;timestamp;pressure;altitude;pressure_sealevel;temperature;humidity
50867;BME280;36839;51.946;21.002;2023-04-21T00:20:29;100492.09;;;7.71;84.70
50867;BME280;36839;51.946;21.002;2023-04-21T00:23:42;100487.16;;;7.69;84.90
50867;BME280;36839;51.946;21.002;2023-04-21T00:33:44;100480.52;;;7.62;84.89
50867;BME280;36839;51.946;21.002;2023-04-21T00:37:08;100480.46;;;7.61;85.30
50867;BME280;36839;51.946;21.002;2023-04-21T00:50:12;100483.44;;;7.51;86.02
50867;BME280;36839;51.946;21.002;2023-04-21T00:53:11;100482.20;;;7.47;86.71
50867;BME280;36839;51.946;21.002;2023-04-21T01:03:37;100473.38;;;7.32;88.20
50867;BME280;36839;51.946;21.002;2023-04-21T01:16:22;100473.36;;;6.86;91.61
50867;BME280;36839;51.946;21.002;2023-04-21T01:36:17;100471.66;;;6.82;92.70
50867;BME280;36839;51.946;21.002;2023-04-21T01:46:12;100468.45;;;6.66;93.97
50867;BME280;36839;51.946;21.002;2023-04-21T02:06:56;100474.10;;;6.39;97.01
50867;BME280;36839;51.946;21.002;2023-04-21T02:13:54;100469.02;;;6.35;97.81
50867;BME280;36839;51.946;21.002;2023-04-21T02:16:49;100474.92;;;6.30;98.03
50867;BME280;36839;51.946;21.002;2023-04-21T02:19:51;100473.58;;;6.22;98.92
50867;BME280;36839;51.946;21.002;2023-04-21T02:26:28;100475.42;;;6.07;99.90
50867;BME280;36839;51.946;21.002;2023-04-21T02:29:30;100477.33;;;6.04;99.98
50867;BME280;36839;51.946;21.002;2023-04-21T02:43:14;100470.05;;;5.91;100.00
50867;BME280;36839;51.946;21.002;2023-04-21T02:53:20;100464.86;;;5.82;100.00
50867;BME280;36839;51.946;21.002;2023-04-21T03:10:58;100465.52;;;5.64;100.00
50867;BME280;36839;51.946;21.002;2023-04-21T03:32:36;100468.77;;;5.52;100.00
50867;BME280;36839;51.946;21.002;2023-04-21T03:39:59;100469.67;;;5.51;100.00
50867;BME280;36839;51.946;21.002;2023-04-21T04:19:07;100485.49;;;5.62;100.00
50867;BME280;36839;51.946;21.002;2023-04-21T04:33:07;100500.48;;;5.81;100.00
50867;BME280;36839;51.946;21.002;2023-04-21T04:39:56;100506.31;;;6.01;100.00
50867;BME280;36839;51.946;21.002;2023-04-21T05:01:42;100511.41;;;6.84;100.00
50867;BME280;36839;51.946;21.002;2023-04-21T05:05:16;100510.84;;;6.99;100.00
50867;BME280;36839;51.946;21.002;2023-04-21T05:41:01;100514.91;;;8.60;90.30
50867;BME280;36839;51.946;21.002;2023-04-21T06:33:39;100496.05;;;10.79;76.28
50867;BME280;36839;51.946;21.002;2023-04-21T06:37:16;100494.69;;;10.90;72.43
50867;BME280;36839;51.946;21.002;2023-04-21T06:44:19;100491.41;;;11.24;74.48
50867;BME280;36839;51.946;21.002;2023-04-21T06:51:41;100498.39;;;11.58;73.43
50867;BME280;36839;51.946;21.002;2023-04-21T06:58:46;100499.75;;;11.89;69.34
50867;BME280;36839;51.946;21.002;2023-04-21T07:02:12;100496.91;;;12.02;66.58
50867;BME280;36839;51.946;21.002;2023-04-21T07:27:24;100499.09;;;13.06;57.90
50867;BME280;36839;51.946;21.002;2023-04-21T07:41:48;100500.88;;;13.59;55.31
50867;BME280;36839;51.946;21.002;2023-04-21T08:07:33;100478.71;;;14.38;51.41
50867;BME280;36839;51.946;21.002;2023-04-21T08:39:56;100469.68;;;15.30;44.25
50867;BME280;36839;51.946;21.002;2023-04-21T08:43:22;100469.42;;;15.38;42.30
50867;BME280;36839;51.946;21.002;2023-04-21T09:12:24;100454.21;;;16.04;37.85
50867;BME280;36839;51.946;21.002;2023-04-21T09:19:36;100449.27;;;16.11;38.06
50867;BME280;36839;51.946;21.002;2023-04-21T09:47:43;100437.88;;;17.30;35.89
50867;BME280;36839;51.946;21.002;2023-04-21T10:05:19;100426.54;;;17.84;34.31
50867;BME280;36839;51.946;21.002;2023-04-21T10:12:15;100415.80;;;17.85;33.55
50867;BME280;36839;51.946;21.002;2023-04-21T10:22:43;100411.13;;;18.10;31.96
50867;BME280;36839;51.946;21.002;2023-04-21T10:26:21;100406.75;;;17.94;31.95
50867;BME280;36839;51.946;21.002;2023-04-21T10:47:53;100387.03;;;17.96;31.62
50867;BME280;36839;51.946;21.002;2023-04-21T10:50:27;100382.33;;;18.08;32.87
50867;BME280;36839;51.946;21.002;2023-04-21T10:53:12;100378.11;;;18.21;32.32
50867;BME280;36839;51.946;21.002;2023-04-21T10:55:39;100374.73;;;18.37;33.50
50867;BME280;36839;51.946;21.002;2023-04-21T10:58:08;100368.23;;;18.55;33.33
50867;BME280;36839;51.946;21.002;2023-04-21T11:00:36;100367.90;;;18.75;34.91
50867;BME280;36839;51.946;21.002;2023-04-21T11:03:07;100368.70;;;18.73;31.68
50867;BME280;36839;51.946;21.002;2023-04-21T11:05:37;100364.65;;;18.63;31.41
50867;BME280;36839;51.946;21.002;2023-04-21T11:08:10;100364.77;;;18.39;31.81
50867;BME280;36839;51.946;21.002;2023-04-21T11:10:54;100362.59;;;17.87;32.28
50867;BME280;36839;51.946;21.002;2023-04-21T11:13:23;100361.14;;;17.85;31.79
50867;BME280;36839;51.946;21.002;2023-04-21T11:15:58;100355.40;;;17.77;30.56
50867;BME280;36839;51.946;21.002;2023-04-21T11:21:16;100354.27;;;17.80;30.06
50867;BME280;36839;51.946;21.002;2023-04-21T11:23:54;100346.52;;;17.74;31.71
50867;BME280;36839;51.946;21.002;2023-04-21T11:26:35;100340.99;;;17.79;31.55
50867;BME280;36839;51.946;21.002;2023-04-21T11:29:07;100335.46;;;17.99;32.17
50867;BME280;36839;51.946;21.002;2023-04-21T11:31:36;100334.27;;;18.23;31.61
50867;BME280;36839;51.946;21.002;2023-04-21T11:34:04;100330.64;;;18.50;32.43
50867;BME280;36839;51.946;21.002;2023-04-21T11:36:33;100329.35;;;18.74;32.42
50867;BME280;36839;51.946;21.002;2023-04-21T11:39:08;100331.89;;;18.91;30.78
50867;BME280;36839;51.946;21.002;2023-04-21T11:41:42;100326.12;;;18.88;30.75
50867;BME280;36839;51.946;21.002;2023-04-21T11:44:11;100327.73;;;19.07;31.31
50867;BME280;36839;51.946;21.002;2023-04-21T11:46:45;100325.48;;;19.22;30.26
50867;BME280;36839;51.946;21.002;2023-04-21T11:49:14;100321.84;;;19.23;30.31
50867;BME280;36839;51.946;21.002;2023-04-21T11:51:43;100327.14;;;19.20;29.85
50867;BME280;36839;51.946;21.002;2023-04-21T11:54:13;100327.77;;;18.97;28.44
50867;BME280;36839;51.946;21.002;2023-04-21T11:56:47;100320.29;;;18.70;28.89
50867;BME280;36839;51.946;21.002;2023-04-21T11:59:17;100318.65;;;18.94;30.66
50867;BME280;36839;51.946;21.002;2023-04-21T12:01:50;100317.45;;;19.18;30.81
50867;BME280;36839;51.946;21.002;2023-04-21T12:04:19;100311.33;;;19.37;30.13
50867;BME280;36839;51.946;21.002;2023-04-21T12:06:57;100310.69;;;19.29;29.64
50867;BME280;36839;51.946;21.002;2023-04-21T12:09:25;100300.83;;;18.83;29.81
50867;BME280;36839;51.946;21.002;2023-04-21T12:11:54;100302.23;;;18.77;30.34
50867;BME280;36839;51.946;21.002;2023-04-21T12:14:24;100300.29;;;18.96;30.49
50867;BME280;36839;51.946;21.002;2023-04-21T12:16:57;100302.19;;;19.13;30.52
50867;BME280;36839;51.946;21.002;2023-04-21T12:19:45;100297.95;;;19.42;29.41
50867;BME280;36839;51.946;21.002;2023-04-21T12:22:15;100294.60;;;19.64;28.45
50867;BME280;36839;51.946;21.002;2023-04-21T12:24:46;100291.29;;;19.82;28.71
50867;BME280;36839;51.946;21.002;2023-04-21T12:27:15;100289.59;;;19.56;28.59
50867;BME280;36839;51.946;21.002;2023-04-21T12:29:42;100285.72;;;19.27;29.41
50867;BME280;36839;51.946;21.002;2023-04-21T12:32:09;100285.20;;;19.23;28.96
50867;BME280;36839;51.946;21.002;2023-04-21T12:34:36;100284.70;;;18.91;29.16
50867;BME280;36839;51.946;21.002;2023-04-21T12:37:04;100282.23;;;18.76;28.54
50867;BME280;36839;51.946;21.002;2023-04-21T12:39:32;100279.23;;;18.77;28.30
50867;BME280;36839;51.946;21.002;2023-04-21T12:42:00;100272.05;;;18.68;28.94
50867;BME280;36839;51.946;21.002;2023-04-21T12:44:30;100269.38;;;18.63;28.05
50867;BME280;36839;51.946;21.002;2023-04-21T12:47:03;100259.54;;;18.85;28.57
50867;BME280;36839;51.946;21.002;2023-04-21T12:49:32;100262.25;;;19.10;29.14
50867;BME280;36839;51.946;21.002;2023-04-21T12:51:58;100262.55;;;19.35;29.71
50867;BME280;36839;51.946;21.002;2023-04-21T12:54:25;100262.77;;;19.33;28.68
50867;BME280;36839;51.946;21.002;2023-04-21T12:56:54;100261.88;;;19.17;29.12
50867;BME280;36839;51.946;21.002;2023-04-21T12:59:21;100261.92;;;19.11;30.33
50867;BME280;36839;51.946;21.002;2023-04-21T13:01:49;100251.35;;;19.07;28.76
50867;BME280;36839;51.946;21.002;2023-04-21T13:04:16;100253.70;;;18.95;28.75
50867;BME280;36839;51.946;21.002;2023-04-21T13:06:43;100253.88;;;19.24;30.07
50867;BME280;36839;51.946;21.002;2023-04-21T13:09:10;100257.55;;;19.68;29.89
50867;BME280;36839;51.946;21.002;2023-04-21T13:11:37;100254.13;;;19.96;27.87
50867;BME280;36839;51.946;21.002;2023-04-21T13:14:04;100254.14;;;19.92;27.56
50867;BME280;36839;51.946;21.002;2023-04-21T13:16:31;100252.54;;;20.18;27.91
50867;BME280;36839;51.946;21.002;2023-04-21T13:18:58;100253.69;;;20.45;27.60
50867;BME280;36839;51.946;21.002;2023-04-21T13:21:25;100247.63;;;20.68;27.88
50867;BME280;36839;51.946;21.002;2023-04-21T13:23:52;100243.25;;;20.72;27.50
50867;BME280;36839;51.946;21.002;2023-04-21T13:26:19;100241.67;;;20.75;27.35
50867;BME280;36839;51.946;21.002;2023-04-21T13:28:46;100241.73;;;20.49;26.55
50867;BME280;36839;51.946;21.002;2023-04-21T13:31:13;100239.90;;;20.42;26.36
50867;BME280;36839;51.946;21.002;2023-04-21T13:33:40;100234.21;;;20.41;27.53
50867;BME280;36839;51.946;21.002;2023-04-21T13:36:09;100229.80;;;20.37;26.08
50867;BME280;36839;51.946;21.002;2023-04-21T13:38:36;100226.33;;;20.44;26.41
50867;BME280;36839;51.946;21.002;2023-04-21T13:41:05;100223.60;;;20.27;28.61
50867;BME280;36839;51.946;21.002;2023-04-21T13:43:33;100222.63;;;20.42;27.44
50867;BME280;36839;51.946;21.002;2023-04-21T13:46:00;100222.59;;;20.69;27.16
50867;BME280;36839;51.946;21.002;2023-04-21T13:48:27;100214.05;;;20.96;26.76
50867;BME280;36839;51.946;21.002;2023-04-21T13:50:55;100212.68;;;21.18;24.83
50867;BME280;36839;51.946;21.002;2023-04-21T13:53:22;100216.85;;;21.42;67.35
50867;BME280;36839;51.946;21.002;2023-04-21T13:55:49;100206.10;;;21.64;31.52
50867;BME280;36839;51.946;21.002;2023-04-21T13:58:17;100201.64;;;21.27;27.63
50867;BME280;36839;51.946;21.002;2023-04-21T14:00:43;100201.94;;;21.03;26.97
50867;BME280;36839;51.946;21.002;2023-04-21T14:03:11;100198.73;;;21.08;26.46
50867;BME280;36839;51.946;21.002;2023-04-21T14:05:39;100199.55;;;21.19;25.01
50867;BME280;36839;51.946;21.002;2023-04-21T14:08:06;100196.18;;;21.31;25.11
50867;BME280;36839;51.946;21.002;2023-04-21T14:10:33;100191.18;;;21.43;25.92
50867;BME280;36839;51.946;21.002;2023-04-21T14:13:00;100190.66;;;21.54;26.09
50867;BME280;36839;51.946;21.002;2023-04-21T14:15:29;100187.11;;;21.63;24.98
50867;BME280;36839;51.946;21.002;2023-04-21T14:17:57;100183.75;;;21.78;25.02
50867;BME280;36839;51.946;21.002;2023-04-21T14:20:24;100179.41;;;21.94;26.67
50867;BME280;36839;51.946;21.002;2023-04-21T14:22:50;100184.39;;;21.92;25.70
50867;BME280;36839;51.946;21.002;2023-04-21T14:25:17;100181.11;;;22.15;26.57
50867;BME280;36839;51.946;21.002;2023-04-21T14:27:44;100178.13;;;22.28;19.79
50867;BME280;36839;51.946;21.002;2023-04-21T14:30:12;100180.39;;;22.08;25.83
50867;BME280;36839;51.946;21.002;2023-04-21T14:32:40;100177.78;;;21.98;24.83
50867;BME280;36839;51.946;21.002;2023-04-21T14:35:14;100170.23;;;22.05;25.46
50867;BME280;36839;51.946;21.002;2023-04-21T14:37:40;100166.60;;;22.18;25.09
50867;BME280;36839;51.946;21.002;2023-04-21T14:40:08;100163.56;;;22.28;24.74
50867;BME280;36839;51.946;21.002;2023-04-21T14:42:35;100160.10;;;22.20;24.60
50867;BME280;36839;51.946;21.002;2023-04-21T14:45:02;100156.50;;;22.20;24.71
50867;BME280;36839;51.946;21.002;2023-04-21T14:47:29;100158.56;;;22.27;24.44
50867;BME280;36839;51.946;21.002;2023-04-21T14:49:57;100151.56;;;22.15;24.50
50867;BME280;36839;51.946;21.002;2023-04-21T14:52:23;100152.85;;;22.18;24.41
50867;BME280;36839;51.946;21.002;2023-04-21T14:54:52;100151.08;;;22.37;24.18
50867;BME280;36839;51.946;21.002;2023-04-21T14:57:19;100146.33;;;22.37;24.34
50867;BME280;36839;51.946;21.002;2023-04-21T14:59:49;100145.00;;;22.40;24.54
50867;BME280;36839;51.946;21.002;2023-04-21T15:02:16;100140.02;;;22.21;24.44
50867;BME280;36839;51.946;21.002;2023-04-21T15:04:43;100143.11;;;22.10;24.15
50867;BME280;36839;51.946;21.002;2023-04-21T15:07:11;100142.75;;;21.91;23.98
50867;BME280;36839;51.946;21.002;2023-04-21T15:09:38;100138.50;;;21.71;24.45
50867;BME280;36839;51.946;21.002;2023-04-21T15:12:06;100137.80;;;21.69;24.63
50867;BME280;36839;51.946;21.002;2023-04-21T15:14:33;100134.20;;;22.08;24.21
50867;BME280;36839;51.946;21.002;2023-04-21T15:17:01;100130.90;;;22.52;23.89
50867;BME280;36839;51.946;21.002;2023-04-21T15:19:28;100133.73;;;23.02;24.13
50867;BME280;36839;51.946;21.002;2023-04-21T15:21:55;100131.98;;;23.55;23.64
50867;BME280;36839;51.946;21.002;2023-04-21T15:24:23;100131.96;;;23.95;23.00
50867;BME280;36839;51.946;21.002;2023-04-21T15:26:50;100127.02;;;24.13;23.31
50867;BME280;36839;51.946;21.002;2023-04-21T15:29:18;100128.06;;;24.43;21.84
50867;BME280;36839;51.946;21.002;2023-04-21T15:31:45;100125.48;;;24.77;21.58
50867;BME280;36839;51.946;21.002;2023-04-21T15:34:12;100120.85;;;25.19;21.13
50867;BME280;36839;51.946;21.002;2023-04-21T15:36:39;100122.43;;;25.32;21.71
50867;BME280;36839;51.946;21.002;2023-04-21T15:39:06;100121.17;;;25.45;21.95
50867;BME280;36839;51.946;21.002;2023-04-21T15:41:34;100115.64;;;25.52;21.90
50867;BME280;36839;51.946;21.002;2023-04-21T15:44:01;100115.13;;;25.46;21.47
50867;BME280;36839;51.946;21.002;2023-04-21T15:46:29;100114.91;;;25.80;21.34
50867;BME280;36839;51.946;21.002;2023-04-21T15:48:56;100112.40;;;26.16;21.48
50867;BME280;36839;51.946;21.002;2023-04-21T15:51:23;100109.66;;;26.54;20.56
50867;BME280;36839;51.946;21.002;2023-04-21T15:53:50;100113.48;;;26.18;20.69
50867;BME280;36839;51.946;21.002;2023-04-21T15:56:17;100111.44;;;25.88;21.09
50867;BME280;36839;51.946;21.002;2023-04-21T15:58:44;100112.85;;;26.08;20.94
50867;BME280;36839;51.946;21.002;2023-04-21T16:01:11;100111.54;;;25.94;21.41
50867;BME280;36839;51.946;21.002;2023-04-21T16:03:38;100109.80;;;25.27;21.18
50867;BME280;36839;51.946;21.002;2023-04-21T16:06:06;100112.07;;;24.77;21.48
50867;BME280;36839;51.946;21.002;2023-04-21T16:08:33;100110.03;;;24.42;21.93
50867;BME280;36839;51.946;21.002;2023-04-21T16:11:00;100110.75;;;24.20;23.09
50867;BME280;36839;51.946;21.002;2023-04-21T16:13:29;100105.14;;;24.02;24.84
50867;BME280;36839;51.946;21.002;2023-04-21T16:15:57;100104.18;;;23.44;22.88
50867;BME280;36839;51.946;21.002;2023-04-21T16:18:24;100104.66;;;22.89;23.51
50867;BME280;36839;51.946;21.002;2023-04-21T16:20:51;100100.35;;;22.20;23.46
50867;BME280;36839;51.946;21.002;2023-04-21T16:23:18;100101.28;;;21.84;24.47
50867;BME280;36839;51.946;21.002;2023-04-21T16:25:45;100099.09;;;21.24;25.24
50867;BME280;36839;51.946;21.002;2023-04-21T16:28:13;100098.55;;;20.59;26.49
50867;BME280;36839;51.946;21.002;2023-04-21T16:30:40;100102.58;;;20.07;27.15
50867;BME280;36839;51.946;21.002;2023-04-21T16:33:10;100102.60;;;19.74;28.09
50867;BME280;36839;51.946;21.002;2023-04-21T16:35:38;100105.73;;;19.53;28.75
50867;BME280;36839;51.946;21.002;2023-04-21T16:38:05;100104.27;;;19.45;28.89
50867;BME280;36839;51.946;21.002;2023-04-21T16:40:32;100101.48;;;19.36;28.87
50867;BME280;36839;51.946;21.002;2023-04-21T16:43:00;100103.58;;;19.38;29.11
50867;BME280;36839;51.946;21.002;2023-04-21T16:45:28;100099.73;;;19.36;29.08
50867;BME280;36839;51.946;21.002;2023-04-21T16:47:56;100101.46;;;19.34;29.08
50867;BME280;36839;51.946;21.002;2023-04-21T16:50:23;100102.48;;;19.50;28.96
50867;BME280;36839;51.946;21.002;2023-04-21T16:52:50;100098.41;;;19.60;28.65
50867;BME280;36839;51.946;21.002;2023-04-21T16:55:18;100097.05;;;19.66;28.82
50867;BME280;36839;51.946;21.002;2023-04-21T16:57:45;100094.92;;;19.54;28.85
50867;BME280;36839;51.946;21.002;2023-04-21T17:00:13;100096.10;;;19.32;28.73
50867;BME280;36839;51.946;21.002;2023-04-21T17:02:40;100099.33;;;19.10;29.40
50867;BME280;36839;51.946;21.002;2023-04-21T17:05:07;100096.95;;;18.93;29.68
50867;BME280;36839;51.946;21.002;2023-04-21T17:07:36;100097.59;;;18.68;30.07
50867;BME280;36839;51.946;21.002;2023-04-21T17:10:06;100093.61;;;18.42;30.48
50867;BME280;36839;51.946;21.002;2023-04-21T17:12:35;100091.53;;;18.12;30.76
50867;BME280;36839;51.946;21.002;2023-04-21T17:15:03;100089.40;;;17.88;31.38
50867;BME280;36839;51.946;21.002;2023-04-21T17:17:40;100091.10;;;17.64;32.28
50867;BME280;36839;51.946;21.002;2023-04-21T17:20:16;100087.62;;;17.36;34.07
50867;BME280;36839;51.946;21.002;2023-04-21T17:22:43;100086.93;;;17.12;35.81
50867;BME280;36839;51.946;21.002;2023-04-21T17:25:12;100092.55;;;16.85;36.97
50867;BME280;36839;51.946;21.002;2023-04-21T17:27:39;100093.09;;;16.59;37.28
50867;BME280;36839;51.946;21.002;2023-04-21T17:30:09;100093.02;;;16.34;38.09
50867;BME280;36839;51.946;21.002;2023-04-21T17:32:36;100092.34;;;16.08;38.96
50867;BME280;36839;51.946;21.002;2023-04-21T17:35:04;100101.05;;;15.82;40.35
50867;BME280;36839;51.946;21.002;2023-04-21T17:37:32;100100.31;;;15.58;41.20
50867;BME280;36839;51.946;21.002;2023-04-21T17:40:02;100102.83;;;15.35;40.07
50867;BME280;36839;51.946;21.002;2023-04-21T17:42:30;100101.66;;;15.09;38.87
50867;BME280;36839;51.946;21.002;2023-04-21T17:44:58;100104.01;;;14.90;38.97
50867;BME280;36839;51.946;21.002;2023-04-21T17:47:28;100101.70;;;14.75;40.33
50867;BME280;36839;51.946;21.002;2023-04-21T17:49:55;100099.15;;;14.55;42.24
50867;BME280;36839;51.946;21.002;2023-04-21T17:52:24;100096.96;;;14.34;42.78
50867;BME280;36839;51.946;21.002;2023-04-21T17:54:50;100101.30;;;14.17;41.58
50867;BME280;36839;51.946;21.002;2023-04-21T17:57:18;100103.33;;;14.01;41.75
50867;BME280;36839;51.946;21.002;2023-04-21T17:59:45;100107.34;;;13.85;41.88
50867;BME280;36839;51.946;21.002;2023-04-21T18:02:12;100109.10;;;13.71;42.64
50867;BME280;36839;51.946;21.002;2023-04-21T18:04:39;100112.25;;;13.56;43.04
50867;BME280;36839;51.946;21.002;2023-04-21T18:07:06;100111.36;;;13.40;43.92
50867;BME280;36839;51.946;21.002;2023-04-21T18:09:33;100115.76;;;13.26;46.61
50867;BME280;36839;51.946;21.002;2023-04-21T18:12:02;100114.94;;;13.08;49.60
50867;BME280;36839;51.946;21.002;2023-04-21T18:14:30;100121.52;;;12.94;48.30
50867;BME280;36839;51.946;21.002;2023-04-21T18:16:57;100116.40;;;12.83;45.62
50867;BME280;36839;51.946;21.002;2023-04-21T18:19:24;100121.09;;;12.76;45.49
50867;BME280;36839;51.946;21.002;2023-04-21T18:21:54;100123.60;;;12.66;46.15
50867;BME280;36839;51.946;21.002;2023-04-21T18:24:25;100121.61;;;12.56;45.78
50867;BME280;36839;51.946;21.002;2023-04-21T18:26:55;100122.17;;;12.55;45.09
50867;BME280;36839;51.946;21.002;2023-04-21T18:29:23;100123.19;;;12.53;47.28
50867;BME280;36839;51.946;21.002;2023-04-21T18:31:50;100121.98;;;12.39;49.69
50867;BME280;36839;51.946;21.002;2023-04-21T18:34:17;100124.78;;;12.20;53.20
50867;BME280;36839;51.946;21.002;2023-04-21T18:36:46;100121.20;;;12.00;54.69
50867;BME280;36839;51.946;21.002;2023-04-21T18:39:17;100121.80;;;11.84;55.18
50867;BME280;36839;51.946;21.002;2023-04-21T18:41:46;100126.23;;;11.72;56.09
50867;BME280;36839;51.946;21.002;2023-04-21T18:44:17;100120.89;;;11.62;55.59
50867;BME280;36839;51.946;21.002;2023-04-21T18:46:45;100121.67;;;11.55;53.53
50867;BME280;36839;51.946;21.002;2023-04-21T18:49:15;100120.04;;;11.48;54.51
50867;BME280;36839;51.946;21.002;2023-04-21T18:51:46;100124.75;;;11.36;56.80
50867;BME280;36839;51.946;21.002;2023-04-21T18:54:17;100122.98;;;11.27;56.01
50867;BME280;36839;51.946;21.002;2023-04-21T18:56:51;100123.20;;;11.19;56.29
50867;BME280;36839;51.946;21.002;2023-04-21T18:59:55;100120.73;;;11.07;58.07
50867;BME280;36839;51.946;21.002;2023-04-21T19:03:04;100118.99;;;10.87;62.44
50867;BME280;36839;51.946;21.002;2023-04-21T19:05:58;100113.73;;;10.72;64.33
50867;BME280;36839;51.946;21.002;2023-04-21T19:08:50;100114.02;;;10.58;65.93
50867;BME280;36839;51.946;21.002;2023-04-21T19:11:42;100117.78;;;10.52;67.81
50867;BME280;36839;51.946;21.002;2023-04-21T19:14:28;100117.38;;;10.45;70.12
50867;BME280;36839;51.946;21.002;2023-04-21T19:17:23;100118.45;;;10.35;70.01
50867;BME280;36839;51.946;21.002;2023-04-21T19:19:52;100114.77;;;10.28;68.39
50867;BME280;36839;51.946;21.002;2023-04-21T19:22:26;100116.71;;;10.26;67.21
50867;BME280;36839;51.946;21.002;2023-04-21T19:25:01;100113.27;;;10.24;67.37
50867;BME280;36839;51.946;21.002;2023-04-21T19:27:36;100111.13;;;10.18;68.46
50867;BME280;36839;51.946;21.002;2023-04-21T19:30:07;100110.14;;;10.05;70.70
50867;BME280;36839;51.946;21.002;2023-04-21T19:32:40;100106.29;;;9.86;73.42
50867;BME280;36839;51.946;21.002;2023-04-21T19:35:10;100102.86;;;9.72;77.11
50867;BME280;36839;51.946;21.002;2023-04-21T19:37:53;100100.95;;;9.58;79.71
50867;BME280;36839;51.946;21.002;2023-04-21T19:40:36;100099.48;;;9.49;82.63
50867;BME280;36839;51.946;21.002;2023-04-21T19:43:08;100105.21;;;9.42;84.46
50867;BME280;36839;51.946;21.002;2023-04-21T19:45:45;100102.56;;;9.35;87.40
50867;BME280;36839;51.946;21.002;2023-04-21T19:48:16;100103.66;;;9.26;88.69
50867;BME280;36839;51.946;21.002;2023-04-21T19:50:47;100107.70;;;9.19;90.20
50867;BME280;36839;51.946;21.002;2023-04-21T19:53:15;100104.32;;;9.11;92.17
50867;BME280;36839;51.946;21.002;2023-04-21T19:55:49;100108.17;;;9.02;92.48
50867;BME280;36839;51.946;21.002;2023-04-21T19:58:23;100102.00;;;8.95;92.06
50867;BME280;36839;51.946;21.002;2023-04-21T20:00:51;100102.30;;;8.92;93.46
50867;BME280;36839;51.946;21.002;2023-04-21T20:03:20;100104.93;;;8.85;95.27
50867;BME280;36839;51.946;21.002;2023-04-21T20:05:47;100103.81;;;8.77;97.35
50867;BME280;36839;51.946;21.002;2023-04-21T20:08:16;100104.46;;;8.70;97.25
50867;BME280;36839;51.946;21.002;2023-04-21T20:10:45;100101.77;;;8.65;96.52
50867;BME280;36839;51.946;21.002;2023-04-21T20:13:17;100102.48;;;8.59;96.33
50867;BME280;36839;51.946;21.002;2023-04-21T20:15:50;100104.56;;;8.51;98.14
50867;BME280;36839;51.946;21.002;2023-04-21T20:18:20;100108.78;;;8.45;98.12
50867;BME280;36839;51.946;21.002;2023-04-21T20:20:49;100109.77;;;8.40;97.58
50867;BME280;36839;51.946;21.002;2023-04-21T20:23:18;100107.93;;;8.37;98.36
50867;BME280;36839;51.946;21.002;2023-04-21T20:25:46;100111.45;;;8.36;98.04
50867;BME280;36839;51.946;21.002;2023-04-21T20:28:15;100109.02;;;8.30;98.76
50867;BME280;36839;51.946;21.002;2023-04-21T20:30:43;100108.56;;;8.23;99.86
50867;BME280;36839;51.946;21.002;2023-04-21T20:33:12;100110.45;;;8.15;100.00
50867;BME280;36839;51.946;21.002;2023-04-21T20:35:40;100110.05;;;8.09;100.00
50867;BME280;36839;51.946;21.002;2023-04-21T20:38:10;100107.77;;;8.02;100.00
50867;BME280;36839;51.946;21.002;2023-04-21T20:40:37;100106.05;;;7.97;100.00
50867;BME280;36839;51.946;21.002;2023-04-21T20:43:05;100108.25;;;7.92;100.00
50867;BME280;36839;51.946;21.002;2023-04-21T20:45:33;100108.35;;;7.87;100.00
50867;BME280;36839;51.946;21.002;2023-04-21T20:48:02;100110.93;;;7.83;100.00
50867;BME280;36839;51.946;21.002;2023-04-21T20:50:29;100113.67;;;7.78;99.86
50867;BME280;36839;51.946;21.002;2023-04-21T20:52:57;100112.29;;;7.77;98.84
50867;BME280;36839;51.946;21.002;2023-04-21T20:55:29;100111.33;;;7.79;98.76
50867;BME280;36839;51.946;21.002;2023-04-21T20:57:57;100111.09;;;7.78;98.42
50867;BME280;36839;51.946;21.002;2023-04-21T21:00:25;100115.11;;;7.76;98.22
50867;BME280;36839;51.946;21.002;2023-04-21T21:02:53;100116.20;;;7.70;98.63
50867;BME280;36839;51.946;21.002;2023-04-21T21:05:20;100116.58;;;7.61;98.59
50867;BME280;36839;51.946;21.002;2023-04-21T21:07:48;100116.91;;;7.54;99.49
50867;BME280;36839;51.946;21.002;2023-04-21T21:10:15;100118.23;;;7.46;99.85
50867;BME280;36839;51.946;21.002;2023-04-21T21:12:42;100114.17;;;7.39;99.98
50867;BME280;36839;51.946;21.002;2023-04-21T21:15:09;100112.46;;;7.32;100.00
50867;BME280;36839;51.946;21.002;2023-04-21T21:17:36;100114.17;;;7.25;100.00
50867;BME280;36839;51.946;21.002;2023-04-21T21:20:04;100112.16;;;7.23;100.00
50867;BME280;36839;51.946;21.002;2023-04-21T21:22:31;100121.46;;;7.17;100.00
50867;BME280;36839;51.946;21.002;2023-04-21T21:24:59;100124.67;;;7.05;100.00
50867;BME280;36839;51.946;21.002;2023-04-21T21:27:26;100115.40;;;6.99;100.00
50867;BME280;36839;51.946;21.002;2023-04-21T21:29:53;100119.45;;;6.98;100.00
50867;BME280;36839;51.946;21.002;2023-04-21T21:32:20;100118.09;;;6.95;100.00
50867;BME280;36839;51.946;21.002;2023-04-21T21:34:47;100119.16;;;6.93;100.00
50867;BME280;36839;51.946;21.002;2023-04-21T21:37:17;100122.42;;;6.93;100.00
50867;BME280;36839;51.946;21.002;2023-04-21T21:39:47;100119.16;;;6.87;100.00
50867;BME280;36839;51.946;21.002;2023-04-21T21:42:16;100117.33;;;6.79;100.00
50867;BME280;36839;51.946;21.002;2023-04-21T21:44:50;100115.83;;;6.75;100.00
50867;BME280;36839;51.946;21.002;2023-04-21T21:47:20;100117.80;;;6.75;100.00
50867;BME280;36839;51.946;21.002;2023-04-21T21:49:49;100122.34;;;6.71;100.00